sensor_id;sensor_type;location;lat;lon;timestamp;temperature;humidity
42085;DHT22;27746;52.228;20.890;2023-12-20T00:00:30;5.80;99.90
42085;DHT22;27746;52.228;20.890;2023-12-20T00:02:57;5.80;99.90
42085;DHT22;27746;52.228;20.890;2023-12-20T00:05:24;5.70;99.90
42085;DHT22;27746;52.228;20.890;2023-12-20T00:07:51;5.80;99.90
42085;DHT22;27746;52.228;20.890;2023-12-20T00:10:18;5.80;99.90
42085;DHT22;27746;52.228;20.890;2023-12-20T00:12:45;5.80;99.90
42085;DHT22;27746;52.228;20.890;2023-12-20T00:15:11;5.70;99.90
42085;DHT22;27746;52.228;20.890;2023-12-20T00:17:40;5.70;99.90
42085;DHT22;27746;52.228;20.890;2023-12-20T00:20:07;5.70;99.90
42085;DHT22;27746;52.228;20.890;2023-12-20T00:22:34;5.80;99.90
42085;DHT22;27746;52.228;20.890;2023-12-20T00:25:01;5.80;99.90
42085;DHT22;27746;52.228;20.890;2023-12-20T00:27:28;5.80;99.90
42085;DHT22;27746;52.228;20.890;2023-12-20T00:29:55;5.70;99.90
42085;DHT22;27746;52.228;20.890;2023-12-20T00:32:22;5.80;99.90
42085;DHT22;27746;52.228;20.890;2023-12-20T00:34:50;5.80;99.90
42085;DHT22;27746;52.228;20.890;2023-12-20T00:37:17;5.80;99.90
42085;DHT22;27746;52.228;20.890;2023-12-20T00:39:43;5.70;99.90
42085;DHT22;27746;52.228;20.890;2023-12-20T00:42:10;5.80;99.90
42085;DHT22;27746;52.228;20.890;2023-12-20T00:44:37;5.80;99.90
42085;DHT22;27746;52.228;20.890;2023-12-20T00:47:04;5.80;99.90
42085;DHT22;27746;52.228;20.890;2023-12-20T00:49:31;5.80;99.90
42085;DHT22;27746;52.228;20.890;2023-12-20T00:51:59;5.80;99.90
42085;DHT22;27746;52.228;20.890;2023-12-20T00:54:26;5.80;99.90
42085;DHT22;27746;52.228;20.890;2023-12-20T00:56:53;5.80;99.90
42085;DHT22;27746;52.228;20.890;2023-12-20T00:59:20;5.80;99.90
42085;DHT22;27746;52.228;20.890;2023-12-20T01:01:46;5.80;99.90
42085;DHT22;27746;52.228;20.890;2023-12-20T01:04:13;5.80;99.90
42085;DHT22;27746;52.228;20.890;2023-12-20T01:06:40;5.90;99.90
42085;DHT22;27746;52.228;20.890;2023-12-20T01:09:08;5.90;99.90
42085;DHT22;27746;52.228;20.890;2023-12-20T01:11:35;5.90;99.90
42085;DHT22;27746;52.228;20.890;2023-12-20T01:14:02;5.90;99.90
42085;DHT22;27746;52.228;20.890;2023-12-20T01:16:28;5.90;99.90
42085;DHT22;27746;52.228;20.890;2023-12-20T01:18:55;5.90;99.90
42085;DHT22;27746;52.228;20.890;2023-12-20T01:21:23;5.90;99.90
42085;DHT22;27746;52.228;20.890;2023-12-20T01:23:51;5.90;99.90
42085;DHT22;27746;52.228;20.890;2023-12-20T01:26:19;5.90;99.90
42085;DHT22;27746;52.228;20.890;2023-12-20T01:28:46;5.90;99.90
42085;DHT22;27746;52.228;20.890;2023-12-20T01:31:12;5.90;99.90
42085;DHT22;27746;52.228;20.890;2023-12-20T01:33:39;5.90;99.90
42085;DHT22;27746;52.228;20.890;2023-12-20T01:36:06;5.90;99.90
42085;DHT22;27746;52.228;20.890;2023-12-20T01:38:33;5.90;99.90
42085;DHT22;27746;52.228;20.890;2023-12-20T01:41:00;5.90;99.90
42085;DHT22;27746;52.228;20.890;2023-12-20T01:43:29;5.90;99.90
42085;DHT22;27746;52.228;20.890;2023-12-20T01:45:56;5.90;99.90
42085;DHT22;27746;52.228;20.890;2023-12-20T01:48:23;5.90;99.90
42085;DHT22;27746;52.228;20.890;2023-12-20T01:50:51;5.90;99.90
42085;DHT22;27746;52.228;20.890;2023-12-20T01:53:20;5.90;99.90
42085;DHT22;27746;52.228;20.890;2023-12-20T01:55:49;5.90;99.90
42085;DHT22;27746;52.228;20.890;2023-12-20T01:58:17;5.90;99.90
42085;DHT22;27746;52.228;20.890;2023-12-20T02:00:46;6.00;99.90
42085;DHT22;27746;52.228;20.890;2023-12-20T02:03:14;6.00;99.90
42085;DHT22;27746;52.228;20.890;2023-12-20T02:05:40;6.00;99.90
42085;DHT22;27746;52.228;20.890;2023-12-20T02:08:07;6.00;99.90
42085;DHT22;27746;52.228;20.890;2023-12-20T02:10:34;6.00;99.90
42085;DHT22;27746;52.228;20.890;2023-12-20T02:13:01;6.00;99.90
42085;DHT22;27746;52.228;20.890;2023-12-20T02:15:28;6.00;99.90
42085;DHT22;27746;52.228;20.890;2023-12-20T02:17:57;5.90;99.90
42085;DHT22;27746;52.228;20.890;2023-12-20T02:20:24;5.90;99.90
42085;DHT22;27746;52.228;20.890;2023-12-20T02:22:52;6.00;99.90
42085;DHT22;27746;52.228;20.890;2023-12-20T02:25:19;5.90;99.90
42085;DHT22;27746;52.228;20.890;2023-12-20T02:27:46;6.00;99.90
42085;DHT22;27746;52.228;20.890;2023-12-20T02:30:13;6.00;99.90
42085;DHT22;27746;52.228;20.890;2023-12-20T02:32:39;6.00;99.90
42085;DHT22;27746;52.228;20.890;2023-12-20T02:35:07;6.00;99.90
42085;DHT22;27746;52.228;20.890;2023-12-20T02:37:33;6.00;99.90
42085;DHT22;27746;52.228;20.890;2023-12-20T02:40:02;6.00;99.90
42085;DHT22;27746;52.228;20.890;2023-12-20T02:42:29;6.00;99.90
42085;DHT22;27746;52.228;20.890;2023-12-20T02:44:56;6.00;99.90
42085;DHT22;27746;52.228;20.890;2023-12-20T02:47:23;6.00;99.90
42085;DHT22;27746;52.228;20.890;2023-12-20T02:49:50;6.00;99.90
42085;DHT22;27746;52.228;20.890;2023-12-20T02:52:18;6.00;99.90
42085;DHT22;27746;52.228;20.890;2023-12-20T02:54:45;6.00;99.90
42085;DHT22;27746;52.228;20.890;2023-12-20T02:57:13;6.10;99.90
42085;DHT22;27746;52.228;20.890;2023-12-20T02:59:40;6.10;99.90
42085;DHT22;27746;52.228;20.890;2023-12-20T03:02:06;6.10;99.90
42085;DHT22;27746;52.228;20.890;2023-12-20T03:04:33;6.10;99.90
42085;DHT22;27746;52.228;20.890;2023-12-20T03:07:00;6.10;99.90
42085;DHT22;27746;52.228;20.890;2023-12-20T03:09:27;6.10;99.90
42085;DHT22;27746;52.228;20.890;2023-12-20T03:11:54;6.10;99.90
42085;DHT22;27746;52.228;20.890;2023-12-20T03:14:22;6.10;99.90
42085;DHT22;27746;52.228;20.890;2023-12-20T03:16:49;6.10;99.90
42085;DHT22;27746;52.228;20.890;2023-12-20T03:19:17;6.10;99.90
42085;DHT22;27746;52.228;20.890;2023-12-20T03:21:44;6.10;99.90
42085;DHT22;27746;52.228;20.890;2023-12-20T03:24:11;6.10;99.90
42085;DHT22;27746;52.228;20.890;2023-12-20T03:26:38;6.10;99.90
42085;DHT22;27746;52.228;20.890;2023-12-20T03:29:04;6.10;99.90
42085;DHT22;27746;52.228;20.890;2023-12-20T03:31:33;6.10;99.90
42085;DHT22;27746;52.228;20.890;2023-12-20T03:33:59;6.10;99.90
42085;DHT22;27746;52.228;20.890;2023-12-20T03:36:26;6.10;99.90
42085;DHT22;27746;52.228;20.890;2023-12-20T03:38:53;6.10;99.90
42085;DHT22;27746;52.228;20.890;2023-12-20T03:41:20;6.10;99.90
42085;DHT22;27746;52.228;20.890;2023-12-20T03:43:46;6.10;99.90
42085;DHT22;27746;52.228;20.890;2023-12-20T03:46:13;6.10;99.90
42085;DHT22;27746;52.228;20.890;2023-12-20T03:48:41;6.10;99.90
42085;DHT22;27746;52.228;20.890;2023-12-20T03:51:08;6.10;99.90
42085;DHT22;27746;52.228;20.890;2023-12-20T03:53:35;6.10;99.90
42085;DHT22;27746;52.228;20.890;2023-12-20T03:56:02;6.10;99.90
42085;DHT22;27746;52.228;20.890;2023-12-20T03:58:29;6.10;99.90
42085;DHT22;27746;52.228;20.890;2023-12-20T04:00:56;6.10;99.90
42085;DHT22;27746;52.228;20.890;2023-12-20T04:03:22;6.10;99.90
42085;DHT22;27746;52.228;20.890;2023-12-20T04:05:51;6.10;99.90
42085;DHT22;27746;52.228;20.890;2023-12-20T04:08:18;6.10;99.90
42085;DHT22;27746;52.228;20.890;2023-12-20T04:10:44;6.10;99.90
42085;DHT22;27746;52.228;20.890;2023-12-20T04:13:11;6.10;99.90
42085;DHT22;27746;52.228;20.890;2023-12-20T04:15:38;6.10;99.90
42085;DHT22;27746;52.228;20.890;2023-12-20T04:18:05;6.10;99.90
42085;DHT22;27746;52.228;20.890;2023-12-20T04:20:32;6.10;99.90
42085;DHT22;27746;52.228;20.890;2023-12-20T04:23:00;6.10;99.90
42085;DHT22;27746;52.228;20.890;2023-12-20T04:25:27;6.10;99.90
42085;DHT22;27746;52.228;20.890;2023-12-20T04:27:53;6.10;99.90
42085;DHT22;27746;52.228;20.890;2023-12-20T04:30:20;6.10;99.90
42085;DHT22;27746;52.228;20.890;2023-12-20T04:32:47;6.10;99.90
42085;DHT22;27746;52.228;20.890;2023-12-20T04:35:14;6.10;99.90
42085;DHT22;27746;52.228;20.890;2023-12-20T04:37:40;6.10;99.90
42085;DHT22;27746;52.228;20.890;2023-12-20T04:40:09;6.10;99.90
42085;DHT22;27746;52.228;20.890;2023-12-20T04:42:37;6.10;99.90
42085;DHT22;27746;52.228;20.890;2023-12-20T04:45:04;6.10;99.90
42085;DHT22;27746;52.228;20.890;2023-12-20T04:47:31;6.10;99.90
42085;DHT22;27746;52.228;20.890;2023-12-20T04:49:58;6.10;99.90
42085;DHT22;27746;52.228;20.890;2023-12-20T04:52:25;6.10;99.90
42085;DHT22;27746;52.228;20.890;2023-12-20T04:54:52;6.10;99.90
42085;DHT22;27746;52.228;20.890;2023-12-20T04:57:20;6.10;99.90
42085;DHT22;27746;52.228;20.890;2023-12-20T04:59:47;6.10;99.90
42085;DHT22;27746;52.228;20.890;2023-12-20T05:02:14;6.10;99.90
42085;DHT22;27746;52.228;20.890;2023-12-20T05:04:42;6.10;99.90
42085;DHT22;27746;52.228;20.890;2023-12-20T05:07:09;6.10;99.90
42085;DHT22;27746;52.228;20.890;2023-12-20T05:09:35;6.10;99.90
42085;DHT22;27746;52.228;20.890;2023-12-20T05:12:03;6.10;99.90
42085;DHT22;27746;52.228;20.890;2023-12-20T05:14:31;6.10;99.90
42085;DHT22;27746;52.228;20.890;2023-12-20T05:16:58;6.10;99.90
42085;DHT22;27746;52.228;20.890;2023-12-20T05:19:25;6.10;99.90
42085;DHT22;27746;52.228;20.890;2023-12-20T05:21:52;6.10;99.90
42085;DHT22;27746;52.228;20.890;2023-12-20T05:24:19;6.10;99.90
42085;DHT22;27746;52.228;20.890;2023-12-20T05:26:45;6.10;99.90
42085;DHT22;27746;52.228;20.890;2023-12-20T05:29:12;6.10;99.90
42085;DHT22;27746;52.228;20.890;2023-12-20T05:31:40;6.10;99.90
42085;DHT22;27746;52.228;20.890;2023-12-20T05:34:07;6.10;99.90
42085;DHT22;27746;52.228;20.890;2023-12-20T05:36:35;6.10;99.90
42085;DHT22;27746;52.228;20.890;2023-12-20T05:39:02;6.10;99.90
42085;DHT22;27746;52.228;20.890;2023-12-20T05:41:30;6.10;99.90
42085;DHT22;27746;52.228;20.890;2023-12-20T05:43:57;6.10;99.90
42085;DHT22;27746;52.228;20.890;2023-12-20T05:46:24;6.10;99.90
42085;DHT22;27746;52.228;20.890;2023-12-20T05:48:53;6.10;99.90
42085;DHT22;27746;52.228;20.890;2023-12-20T05:51:19;6.10;99.90
42085;DHT22;27746;52.228;20.890;2023-12-20T05:53:46;6.10;99.90
42085;DHT22;27746;52.228;20.890;2023-12-20T05:56:15;6.00;99.90
42085;DHT22;27746;52.228;20.890;2023-12-20T05:58:42;6.00;99.90
42085;DHT22;27746;52.228;20.890;2023-12-20T06:01:09;6.00;99.90
42085;DHT22;27746;52.228;20.890;2023-12-20T06:03:36;6.00;99.90
42085;DHT22;27746;52.228;20.890;2023-12-20T06:06:06;6.00;99.90
42085;DHT22;27746;52.228;20.890;2023-12-20T06:08:33;6.00;99.90
42085;DHT22;27746;52.228;20.890;2023-12-20T06:11:00;6.00;99.90
42085;DHT22;27746;52.228;20.890;2023-12-20T06:13:27;6.00;99.90
42085;DHT22;27746;52.228;20.890;2023-12-20T06:15:54;6.00;99.90
42085;DHT22;27746;52.228;20.890;2023-12-20T06:18:22;6.00;99.90
42085;DHT22;27746;52.228;20.890;2023-12-20T06:20:50;5.90;99.90
42085;DHT22;27746;52.228;20.890;2023-12-20T06:23:18;5.90;99.90
42085;DHT22;27746;52.228;20.890;2023-12-20T06:25:45;6.00;99.90
42085;DHT22;27746;52.228;20.890;2023-12-20T06:28:12;5.90;99.90
42085;DHT22;27746;52.228;20.890;2023-12-20T06:30:40;6.00;99.90
42085;DHT22;27746;52.228;20.890;2023-12-20T06:33:06;5.90;99.90
42085;DHT22;27746;52.228;20.890;2023-12-20T06:35:35;6.00;99.90
42085;DHT22;27746;52.228;20.890;2023-12-20T06:38:02;6.00;99.90
42085;DHT22;27746;52.228;20.890;2023-12-20T06:40:30;5.90;99.90
42085;DHT22;27746;52.228;20.890;2023-12-20T06:42:57;5.90;99.90
42085;DHT22;27746;52.228;20.890;2023-12-20T06:45:25;5.90;99.90
42085;DHT22;27746;52.228;20.890;2023-12-20T06:47:51;5.90;99.90
42085;DHT22;27746;52.228;20.890;2023-12-20T06:50:20;5.90;99.90
42085;DHT22;27746;52.228;20.890;2023-12-20T06:52:46;5.90;99.90
42085;DHT22;27746;52.228;20.890;2023-12-20T06:55:13;5.90;99.90
42085;DHT22;27746;52.228;20.890;2023-12-20T06:57:41;5.90;99.90
42085;DHT22;27746;52.228;20.890;2023-12-20T07:00:12;6.00;99.90
42085;DHT22;27746;52.228;20.890;2023-12-20T07:02:38;6.00;99.90
42085;DHT22;27746;52.228;20.890;2023-12-20T07:05:06;5.90;99.90
42085;DHT22;27746;52.228;20.890;2023-12-20T07:07:33;5.90;99.90
42085;DHT22;27746;52.228;20.890;2023-12-20T07:10:00;6.00;99.90
42085;DHT22;27746;52.228;20.890;2023-12-20T07:12:27;6.00;99.90
42085;DHT22;27746;52.228;20.890;2023-12-20T07:14:55;6.00;99.90
42085;DHT22;27746;52.228;20.890;2023-12-20T07:17:22;6.00;99.90
42085;DHT22;27746;52.228;20.890;2023-12-20T07:19:49;6.00;99.90
42085;DHT22;27746;52.228;20.890;2023-12-20T07:22:16;6.00;99.90
42085;DHT22;27746;52.228;20.890;2023-12-20T07:24:42;6.00;99.90
42085;DHT22;27746;52.228;20.890;2023-12-20T07:27:09;6.00;99.90
42085;DHT22;27746;52.228;20.890;2023-12-20T07:29:36;6.00;99.90
42085;DHT22;27746;52.228;20.890;2023-12-20T07:32:05;6.00;99.90
42085;DHT22;27746;52.228;20.890;2023-12-20T07:34:32;6.10;99.90
42085;DHT22;27746;52.228;20.890;2023-12-20T07:36:59;6.10;99.90
42085;DHT22;27746;52.228;20.890;2023-12-20T07:39:25;6.10;99.90
42085;DHT22;27746;52.228;20.890;2023-12-20T07:41:52;6.00;99.90
42085;DHT22;27746;52.228;20.890;2023-12-20T07:44:19;6.00;99.90
42085;DHT22;27746;52.228;20.890;2023-12-20T07:46:46;6.00;99.90
42085;DHT22;27746;52.228;20.890;2023-12-20T07:49:15;6.10;99.90
42085;DHT22;27746;52.228;20.890;2023-12-20T07:51:42;6.10;99.90
42085;DHT22;27746;52.228;20.890;2023-12-20T07:54:09;6.10;99.90
42085;DHT22;27746;52.228;20.890;2023-12-20T07:56:36;6.00;99.90
42085;DHT22;27746;52.228;20.890;2023-12-20T07:59:02;6.00;99.90
42085;DHT22;27746;52.228;20.890;2023-12-20T08:01:30;6.00;99.90
42085;DHT22;27746;52.228;20.890;2023-12-20T08:03:57;6.00;99.90
42085;DHT22;27746;52.228;20.890;2023-12-20T08:06:25;6.00;99.90
42085;DHT22;27746;52.228;20.890;2023-12-20T08:08:52;6.00;99.90
42085;DHT22;27746;52.228;20.890;2023-12-20T08:11:19;6.00;99.90
42085;DHT22;27746;52.228;20.890;2023-12-20T08:13:45;6.00;99.90
42085;DHT22;27746;52.228;20.890;2023-12-20T08:16:12;6.00;99.90
42085;DHT22;27746;52.228;20.890;2023-12-20T08:18:41;6.00;99.90
42085;DHT22;27746;52.228;20.890;2023-12-20T08:21:08;6.00;99.90
42085;DHT22;27746;52.228;20.890;2023-12-20T08:23:36;6.00;99.90
42085;DHT22;27746;52.228;20.890;2023-12-20T08:26:04;6.00;99.90
42085;DHT22;27746;52.228;20.890;2023-12-20T08:28:31;6.00;99.90
42085;DHT22;27746;52.228;20.890;2023-12-20T08:30:58;6.00;99.90
42085;DHT22;27746;52.228;20.890;2023-12-20T08:33:25;6.00;99.90
42085;DHT22;27746;52.228;20.890;2023-12-20T08:35:52;6.00;99.90
42085;DHT22;27746;52.228;20.890;2023-12-20T08:38:19;5.90;99.90
42085;DHT22;27746;52.228;20.890;2023-12-20T08:40:47;5.90;99.90
42085;DHT22;27746;52.228;20.890;2023-12-20T08:43:14;6.00;99.90
42085;DHT22;27746;52.228;20.890;2023-12-20T08:45:41;5.90;99.90
42085;DHT22;27746;52.228;20.890;2023-12-20T08:48:08;6.00;99.90
42085;DHT22;27746;52.228;20.890;2023-12-20T08:50:35;6.00;99.90
42085;DHT22;27746;52.228;20.890;2023-12-20T08:53:02;6.00;99.90
42085;DHT22;27746;52.228;20.890;2023-12-20T08:55:29;6.00;99.90
42085;DHT22;27746;52.228;20.890;2023-12-20T08:57:58;5.90;99.90
42085;DHT22;27746;52.228;20.890;2023-12-20T09:00:25;5.90;99.90
42085;DHT22;27746;52.228;20.890;2023-12-20T09:02:53;5.90;99.90
42085;DHT22;27746;52.228;20.890;2023-12-20T09:05:20;5.90;99.90
42085;DHT22;27746;52.228;20.890;2023-12-20T09:07:47;5.90;99.90
42085;DHT22;27746;52.228;20.890;2023-12-20T09:10:14;5.90;99.90
42085;DHT22;27746;52.228;20.890;2023-12-20T09:12:41;5.90;99.90
42085;DHT22;27746;52.228;20.890;2023-12-20T09:15:09;5.80;99.90
42085;DHT22;27746;52.228;20.890;2023-12-20T09:17:36;5.80;99.90
42085;DHT22;27746;52.228;20.890;2023-12-20T09:20:03;5.80;99.90
42085;DHT22;27746;52.228;20.890;2023-12-20T09:22:32;5.90;99.90
42085;DHT22;27746;52.228;20.890;2023-12-20T09:24:59;5.90;99.90
42085;DHT22;27746;52.228;20.890;2023-12-20T09:27:27;5.90;99.90
42085;DHT22;27746;52.228;20.890;2023-12-20T09:29:54;5.90;99.90
42085;DHT22;27746;52.228;20.890;2023-12-20T09:32:22;5.90;99.90
42085;DHT22;27746;52.228;20.890;2023-12-20T09:34:49;5.80;99.90
42085;DHT22;27746;52.228;20.890;2023-12-20T09:37:15;5.80;99.90
42085;DHT22;27746;52.228;20.890;2023-12-20T09:39:42;5.80;99.90
42085;DHT22;27746;52.228;20.890;2023-12-20T09:42:11;5.90;99.90
42085;DHT22;27746;52.228;20.890;2023-12-20T09:44:38;5.90;99.90
42085;DHT22;27746;52.228;20.890;2023-12-20T09:47:08;5.90;99.90
42085;DHT22;27746;52.228;20.890;2023-12-20T09:49:36;5.90;99.90
42085;DHT22;27746;52.228;20.890;2023-12-20T09:52:05;5.90;99.90
42085;DHT22;27746;52.228;20.890;2023-12-20T09:54:32;5.90;99.90
42085;DHT22;27746;52.228;20.890;2023-12-20T09:56:59;5.90;99.90
42085;DHT22;27746;52.228;20.890;2023-12-20T09:59:26;6.00;99.90
42085;DHT22;27746;52.228;20.890;2023-12-20T10:01:54;6.00;99.90
42085;DHT22;27746;52.228;20.890;2023-12-20T10:04:22;5.90;99.90
42085;DHT22;27746;52.228;20.890;2023-12-20T10:06:50;6.00;99.90
42085;DHT22;27746;52.228;20.890;2023-12-20T10:09:17;6.00;99.90
42085;DHT22;27746;52.228;20.890;2023-12-20T10:11:44;6.00;99.90
42085;DHT22;27746;52.228;20.890;2023-12-20T10:14:12;6.00;99.90
42085;DHT22;27746;52.228;20.890;2023-12-20T10:16:41;6.00;99.90
42085;DHT22;27746;52.228;20.890;2023-12-20T10:19:07;6.00;99.90
42085;DHT22;27746;52.228;20.890;2023-12-20T10:21:34;6.00;99.90
42085;DHT22;27746;52.228;20.890;2023-12-20T10:24:05;6.00;99.90
42085;DHT22;27746;52.228;20.890;2023-12-20T10:26:32;6.00;99.90
42085;DHT22;27746;52.228;20.890;2023-12-20T10:29:00;6.00;99.90
42085;DHT22;27746;52.228;20.890;2023-12-20T10:31:30;6.00;99.90
42085;DHT22;27746;52.228;20.890;2023-12-20T10:33:58;6.00;99.90
42085;DHT22;27746;52.228;20.890;2023-12-20T10:36:26;6.00;99.90
42085;DHT22;27746;52.228;20.890;2023-12-20T10:38:53;6.00;99.90
42085;DHT22;27746;52.228;20.890;2023-12-20T10:41:26;6.10;99.90
42085;DHT22;27746;52.228;20.890;2023-12-20T10:43:56;6.10;99.90
42085;DHT22;27746;52.228;20.890;2023-12-20T10:46:25;6.10;99.90
42085;DHT22;27746;52.228;20.890;2023-12-20T10:48:54;6.10;99.90
42085;DHT22;27746;52.228;20.890;2023-12-20T10:51:21;6.10;99.90
42085;DHT22;27746;52.228;20.890;2023-12-20T10:53:50;6.10;99.90
42085;DHT22;27746;52.228;20.890;2023-12-20T10:56:18;6.10;99.90
42085;DHT22;27746;52.228;20.890;2023-12-20T10:58:48;6.10;99.90
42085;DHT22;27746;52.228;20.890;2023-12-20T11:01:16;6.10;99.90
42085;DHT22;27746;52.228;20.890;2023-12-20T11:03:48;6.10;99.90
42085;DHT22;27746;52.228;20.890;2023-12-20T11:06:26;6.10;99.90
42085;DHT22;27746;52.228;20.890;2023-12-20T11:09:00;6.20;99.90
42085;DHT22;27746;52.228;20.890;2023-12-20T11:11:39;6.10;99.90
42085;DHT22;27746;52.228;20.890;2023-12-20T11:14:15;6.10;99.90
42085;DHT22;27746;52.228;20.890;2023-12-20T11:16:43;6.20;99.90
42085;DHT22;27746;52.228;20.890;2023-12-20T11:19:11;6.10;99.90
42085;DHT22;27746;52.228;20.890;2023-12-20T11:21:40;6.10;99.90
42085;DHT22;27746;52.228;20.890;2023-12-20T11:24:07;6.10;99.90
42085;DHT22;27746;52.228;20.890;2023-12-20T11:26:33;6.10;99.90
42085;DHT22;27746;52.228;20.890;2023-12-20T11:29:31;6.10;99.90
42085;DHT22;27746;52.228;20.890;2023-12-20T11:32:00;6.10;99.90
42085;DHT22;27746;52.228;20.890;2023-12-20T11:34:27;6.10;99.90
42085;DHT22;27746;52.228;20.890;2023-12-20T11:36:58;6.10;99.90
42085;DHT22;27746;52.228;20.890;2023-12-20T11:39:26;6.10;99.90
42085;DHT22;27746;52.228;20.890;2023-12-20T11:41:55;6.10;99.90
42085;DHT22;27746;52.228;20.890;2023-12-20T11:44:23;6.10;99.90
42085;DHT22;27746;52.228;20.890;2023-12-20T11:46:53;6.10;99.90
42085;DHT22;27746;52.228;20.890;2023-12-20T11:49:23;6.10;99.90
42085;DHT22;27746;52.228;20.890;2023-12-20T11:51:54;6.10;99.90
42085;DHT22;27746;52.228;20.890;2023-12-20T11:54:21;6.10;99.90
42085;DHT22;27746;52.228;20.890;2023-12-20T11:56:48;6.10;99.90
42085;DHT22;27746;52.228;20.890;2023-12-20T11:59:15;6.10;99.90
42085;DHT22;27746;52.228;20.890;2023-12-20T12:01:48;6.10;99.90
42085;DHT22;27746;52.228;20.890;2023-12-20T12:04:17;6.10;99.90
42085;DHT22;27746;52.228;20.890;2023-12-20T12:06:44;6.10;99.90
42085;DHT22;27746;52.228;20.890;2023-12-20T12:09:11;6.10;99.90
42085;DHT22;27746;52.228;20.890;2023-12-20T12:11:38;6.10;99.90
42085;DHT22;27746;52.228;20.890;2023-12-20T12:14:05;6.10;99.90
42085;DHT22;27746;52.228;20.890;2023-12-20T12:16:31;6.10;99.90
42085;DHT22;27746;52.228;20.890;2023-12-20T12:18:59;6.00;99.90
42085;DHT22;27746;52.228;20.890;2023-12-20T12:21:27;6.10;99.90
42085;DHT22;27746;52.228;20.890;2023-12-20T12:23:54;6.00;99.90
42085;DHT22;27746;52.228;20.890;2023-12-20T12:26:32;6.10;99.90
42085;DHT22;27746;52.228;20.890;2023-12-20T12:28:59;6.00;99.90
42085;DHT22;27746;52.228;20.890;2023-12-20T12:31:26;6.00;99.90
42085;DHT22;27746;52.228;20.890;2023-12-20T12:33:52;6.00;99.90
42085;DHT22;27746;52.228;20.890;2023-12-20T12:36:19;6.00;99.90
42085;DHT22;27746;52.228;20.890;2023-12-20T12:38:48;6.00;99.90
42085;DHT22;27746;52.228;20.890;2023-12-20T12:41:14;6.00;99.90
42085;DHT22;27746;52.228;20.890;2023-12-20T12:43:42;6.00;99.90
42085;DHT22;27746;52.228;20.890;2023-12-20T12:46:08;6.00;99.90
42085;DHT22;27746;52.228;20.890;2023-12-20T12:48:35;6.00;99.90
42085;DHT22;27746;52.228;20.890;2023-12-20T12:51:02;6.00;99.90
42085;DHT22;27746;52.228;20.890;2023-12-20T12:53:29;6.00;99.90
42085;DHT22;27746;52.228;20.890;2023-12-20T12:55:58;6.00;99.90
42085;DHT22;27746;52.228;20.890;2023-12-20T12:58:24;6.00;99.90
42085;DHT22;27746;52.228;20.890;2023-12-20T13:00:51;6.00;99.90
42085;DHT22;27746;52.228;20.890;2023-12-20T13:03:17;5.90;99.90
42085;DHT22;27746;52.228;20.890;2023-12-20T13:05:44;5.90;99.90
42085;DHT22;27746;52.228;20.890;2023-12-20T13:08:12;5.90;99.90
42085;DHT22;27746;52.228;20.890;2023-12-20T13:10:39;5.90;99.90
42085;DHT22;27746;52.228;20.890;2023-12-20T13:13:07;5.90;99.90
42085;DHT22;27746;52.228;20.890;2023-12-20T13:15:34;5.90;99.90
42085;DHT22;27746;52.228;20.890;2023-12-20T13:18:01;5.80;99.90
42085;DHT22;27746;52.228;20.890;2023-12-20T13:20:28;5.90;99.90
42085;DHT22;27746;52.228;20.890;2023-12-20T13:22:55;5.90;99.90
42085;DHT22;27746;52.228;20.890;2023-12-20T13:25:21;5.80;99.90
42085;DHT22;27746;52.228;20.890;2023-12-20T13:27:49;5.80;99.90
42085;DHT22;27746;52.228;20.890;2023-12-20T13:30:17;5.80;99.90
42085;DHT22;27746;52.228;20.890;2023-12-20T13:32:44;5.80;99.90
42085;DHT22;27746;52.228;20.890;2023-12-20T13:35:11;5.80;99.90
42085;DHT22;27746;52.228;20.890;2023-12-20T13:37:38;5.90;99.90
42085;DHT22;27746;52.228;20.890;2023-12-20T13:40:06;5.90;99.90
42085;DHT22;27746;52.228;20.890;2023-12-20T13:42:33;5.90;99.90
42085;DHT22;27746;52.228;20.890;2023-12-20T13:45:04;5.80;99.90
42085;DHT22;27746;52.228;20.890;2023-12-20T13:47:32;5.80;99.90
42085;DHT22;27746;52.228;20.890;2023-12-20T13:49:59;5.70;99.90
42085;DHT22;27746;52.228;20.890;2023-12-20T13:52:26;5.80;99.90
42085;DHT22;27746;52.228;20.890;2023-12-20T13:54:53;5.80;99.90
42085;DHT22;27746;52.228;20.890;2023-12-20T13:57:20;5.80;99.90
42085;DHT22;27746;52.228;20.890;2023-12-20T13:59:46;5.80;99.90
42085;DHT22;27746;52.228;20.890;2023-12-20T14:02:13;5.80;99.90
42085;DHT22;27746;52.228;20.890;2023-12-20T14:04:43;5.80;99.90
42085;DHT22;27746;52.228;20.890;2023-12-20T14:07:10;5.70;99.90
42085;DHT22;27746;52.228;20.890;2023-12-20T14:09:37;5.70;99.90
42085;DHT22;27746;52.228;20.890;2023-12-20T14:12:04;5.70;99.90
42085;DHT22;27746;52.228;20.890;2023-12-20T14:14:31;5.70;99.90
42085;DHT22;27746;52.228;20.890;2023-12-20T14:16:58;5.70;99.90
42085;DHT22;27746;52.228;20.890;2023-12-20T14:19:25;5.70;99.90
42085;DHT22;27746;52.228;20.890;2023-12-20T14:21:54;5.70;99.90
42085;DHT22;27746;52.228;20.890;2023-12-20T14:24:20;5.60;99.90
42085;DHT22;27746;52.228;20.890;2023-12-20T14:26:47;5.60;99.90
42085;DHT22;27746;52.228;20.890;2023-12-20T14:29:14;5.60;99.90
42085;DHT22;27746;52.228;20.890;2023-12-20T14:31:41;5.60;99.90
42085;DHT22;27746;52.228;20.890;2023-12-20T14:34:08;5.60;99.90
42085;DHT22;27746;52.228;20.890;2023-12-20T14:36:34;5.50;99.90
42085;DHT22;27746;52.228;20.890;2023-12-20T14:39:03;5.50;99.90
42085;DHT22;27746;52.228;20.890;2023-12-20T14:41:30;5.60;99.90
42085;DHT22;27746;52.228;20.890;2023-12-20T14:43:57;5.50;99.90
42085;DHT22;27746;52.228;20.890;2023-12-20T14:46:25;5.50;99.90
42085;DHT22;27746;52.228;20.890;2023-12-20T14:48:52;5.50;99.90
42085;DHT22;27746;52.228;20.890;2023-12-20T14:51:19;5.50;99.90
42085;DHT22;27746;52.228;20.890;2023-12-20T14:53:46;5.50;99.90
42085;DHT22;27746;52.228;20.890;2023-12-20T14:56:14;5.40;99.90
42085;DHT22;27746;52.228;20.890;2023-12-20T14:58:41;5.40;99.90
42085;DHT22;27746;52.228;20.890;2023-12-20T15:01:08;5.40;99.90
42085;DHT22;27746;52.228;20.890;2023-12-20T15:03:35;5.40;99.90
42085;DHT22;27746;52.228;20.890;2023-12-20T15:06:02;5.30;99.90
42085;DHT22;27746;52.228;20.890;2023-12-20T15:08:29;5.30;99.90
42085;DHT22;27746;52.228;20.890;2023-12-20T15:10:56;5.30;99.90
42085;DHT22;27746;52.228;20.890;2023-12-20T15:13:24;5.30;99.90
42085;DHT22;27746;52.228;20.890;2023-12-20T15:15:51;5.20;99.90
42085;DHT22;27746;52.228;20.890;2023-12-20T15:18:18;5.20;99.90
42085;DHT22;27746;52.228;20.890;2023-12-20T15:20:44;5.20;99.90
42085;DHT22;27746;52.228;20.890;2023-12-20T15:23:13;5.20;99.90
42085;DHT22;27746;52.228;20.890;2023-12-20T15:25:40;5.20;99.90
42085;DHT22;27746;52.228;20.890;2023-12-20T15:28:07;5.20;99.90
42085;DHT22;27746;52.228;20.890;2023-12-20T15:30:35;5.20;99.90